Time;durP1;ratioP1;P1;durP2;ratioP2;P2;SDS_P1;SDS_P2;PMS_P1;PMS_P2;Temp;Humidity;BMP_temperature;BMP_pressure;BME280_temperature;BME280_humidity;BME280_pressure;Samples;Min_cycle;Max_cycle;Signal;HPM_P1;HPM_P2
2021/11/05 00:01:47;;;;;;;72.77;33.73;;;;;;;;;;5016556;28;20907;-50
2021/11/05 00:04:13;;;;;;;66.80;32.77;;;;;;;;;;5016183;28;20918;-50
2021/11/05 00:06:39;;;;;;;75.77;33.20;;;;;;;;;;5018985;28;20453;-50
2021/11/05 00:09:05;;;;;;;80.83;35.17;;;;;;;;;;5019571;28;20820;-50
2021/11/05 00:11:31;;;;;;;74.70;34.80;;;;;;;;;;5019426;28;20984;-50
2021/11/05 00:13:57;;;;;;;75.53;35.03;;;;;;;;;;5018340;28;20406;-51
2021/11/05 00:16:23;;;;;;;73.73;34.90;;;;;;;;;;5018243;28;20770;-51
2021/11/05 00:18:49;;;;;;;77.40;36.17;;;;;;;;;;5017032;28;20417;-52
2021/11/05 00:21:15;;;;;;;71.43;34.63;;;;;;;;;;5018078;28;20440;-52
2021/11/05 00:23:41;;;;;;;78.70;37.23;;;;;;;;;;5017907;28;20414;-51
2021/11/05 00:26:07;;;;;;;83.70;38.07;;;;;;;;;;5016999;28;20482;-51
2021/11/05 00:28:33;;;;;;;84.23;37.50;;;;;;;;;;5017217;28;20403;-51
2021/11/05 00:30:59;;;;;;;75.23;36.13;;;;;;;;;;5017351;28;20410;-51
2021/11/05 00:33:25;;;;;;;76.23;37.03;;;;;;;;;;5001125;28;20493;-52
2021/11/05 00:35:51;;;;;;;90.57;38.53;;;;;;;;;;4998684;28;20455;-51
2021/11/05 00:38:17;;;;;;;98.47;38.83;;;;;;;;;;4999361;28;20755;-50
2021/11/05 00:40:43;;;;;;;82.23;37.00;;;;;;;;;;4998694;28;20884;-50
2021/11/05 00:43:09;;;;;;;94.27;39.50;;;;;;;;;;4998592;28;20400;-51
2021/11/05 00:45:35;;;;;;;106.63;39.43;;;;;;;;;;4997864;28;20426;-52
2021/11/05 00:48:01;;;;;;;93.87;40.53;;;;;;;;;;4998445;28;20405;-51
2021/11/05 00:50:27;;;;;;;85.63;37.83;;;;;;;;;;4996963;28;20408;-51
2021/11/05 00:52:53;;;;;;;89.13;36.87;;;;;;;;;;4996612;28;20402;-51
2021/11/05 00:55:19;;;;;;;85.83;38.33;;;;;;;;;;4996403;28;20426;-51
2021/11/05 00:57:45;;;;;;;90.63;37.90;;;;;;;;;;4997233;28;20425;-51
2021/11/05 01:00:13;;;;;;;96.80;38.53;;;;;;;;;;4998282;28;20412;-50
2021/11/05 01:02:40;;;;;;;95.30;37.77;;;;;;;;;;4998648;28;20458;-50
2021/11/05 01:05:07;;;;;;;90.43;39.90;;;;;;;;;;4997114;28;20934;-51
2021/11/05 01:07:33;;;;;;;90.90;38.80;;;;;;;;;;4996331;28;20456;-50
2021/11/05 01:09:59;;;;;;;86.93;37.90;;;;;;;;;;4996638;28;20816;-50
2021/11/05 01:12:25;;;;;;;103.57;37.53;;;;;;;;;;4996684;28;20447;-50
2021/11/05 01:14:51;;;;;;;86.57;36.47;;;;;;;;;;4996194;28;20795;-50
2021/11/05 01:17:19;;;;;;;100.20;37.80;;;;;;;;;;4995858;28;20537;-50
2021/11/05 01:19:45;;;;;;;97.70;39.70;;;;;;;;;;4995826;28;20406;-51
2021/11/05 01:22:11;;;;;;;82.50;37.00;;;;;;;;;;4995586;28;20402;-51
2021/11/05 01:24:37;;;;;;;86.90;35.20;;;;;;;;;;4995518;28;20462;-51
2021/11/05 01:27:03;;;;;;;90.90;35.90;;;;;;;;;;4994791;28;20490;-51
2021/11/05 01:29:29;;;;;;;95.27;35.10;;;;;;;;;;4994898;28;20484;-52
2021/11/05 01:31:56;;;;;;;96.47;34.63;;;;;;;;;;4994387;28;20407;-52
2021/11/05 01:34:22;;;;;;;90.57;35.40;;;;;;;;;;4995170;28;20412;-52
2021/11/05 01:36:48;;;;;;;78.60;33.20;;;;;;;;;;4994303;28;20401;-51
2021/11/05 01:39:15;;;;;;;76.83;31.97;;;;;;;;;;4994017;28;20410;-51
2021/11/05 01:41:42;;;;;;;88.93;33.83;;;;;;;;;;4995324;28;20408;-50
2021/11/05 01:44:08;;;;;;;80.47;33.40;;;;;;;;;;4995151;28;20411;-52
2021/11/05 01:46:40;;;;;;;78.73;33.90;;;;;;;;;;4995207;28;20462;-51
2021/11/05 01:49:06;;;;;;;78.37;32.63;;;;;;;;;;4994571;28;20411;-51
2021/11/05 01:51:32;;;;;;;78.10;33.00;;;;;;;;;;4994487;28;20418;-50
2021/11/05 01:53:58;;;;;;;90.83;32.87;;;;;;;;;;4995038;28;20519;-52
2021/11/05 01:56:24;;;;;;;83.33;33.00;;;;;;;;;;4993180;28;20436;-52
2021/11/05 01:58:50;;;;;;;89.30;32.87;;;;;;;;;;4994332;28;20432;-51
2021/11/05 02:01:16;;;;;;;82.47;30.90;;;;;;;;;;4994593;28;20943;-50
2021/11/05 02:03:42;;;;;;;87.47;33.70;;;;;;;;;;5011049;28;20901;-51
2021/11/05 02:06:09;;;;;;;85.43;32.97;;;;;;;;;;5014863;28;20459;-51
2021/11/05 02:08:35;;;;;;;75.87;31.10;;;;;;;;;;5013394;28;20446;-51
2021/11/05 02:11:03;;;;;;;80.87;32.77;;;;;;;;;;5014971;28;20399;-51
2021/11/05 02:13:30;;;;;;;77.33;33.60;;;;;;;;;;5014997;28;20821;-51
2021/11/05 02:15:57;;;;;;;70.73;31.40;;;;;;;;;;5015014;28;20449;-50
2021/11/05 02:18:24;;;;;;;68.03;31.37;;;;;;;;;;5014562;28;20489;-51
2021/11/05 02:20:54;;;;;;;91.23;30.90;;;;;;;;;;5014798;28;20897;-50
2021/11/05 02:23:21;;;;;;;73.00;33.00;;;;;;;;;;5014535;28;20424;-51
2021/11/05 02:25:47;;;;;;;74.80;30.37;;;;;;;;;;5014598;28;20430;-50
2021/11/05 02:28:13;;;;;;;77.67;31.03;;;;;;;;;;5014200;28;20403;-52
2021/11/05 02:30:39;;;;;;;69.27;30.53;;;;;;;;;;5014554;28;20469;-51
2021/11/05 02:33:06;;;;;;;77.07;30.43;;;;;;;;;;5014286;28;20401;-51
2021/11/05 02:35:32;;;;;;;77.30;29.63;;;;;;;;;;5014790;28;20510;-51
2021/11/05 02:37:58;;;;;;;71.17;32.60;;;;;;;;;;5015192;28;20854;-51
2021/11/05 02:40:24;;;;;;;87.93;31.70;;;;;;;;;;5016080;28;20514;-52
2021/11/05 02:42:50;;;;;;;78.13;33.10;;;;;;;;;;5019724;28;20447;-51
2021/11/05 02:45:16;;;;;;;68.47;30.90;;;;;;;;;;5022630;28;20581;-51
2021/11/05 02:47:44;;;;;;;72.33;30.50;;;;;;;;;;5021907;28;20456;-51
2021/11/05 02:50:16;;;;;;;69.13;32.27;;;;;;;;;;5022192;28;20456;-51
2021/11/05 02:52:42;;;;;;;60.40;26.47;;;;;;;;;;5021918;28;20391;-51
2021/11/05 02:55:09;;;;;;;72.53;29.47;;;;;;;;;;5022149;28;20418;-51
2021/11/05 02:57:35;;;;;;;70.53;28.63;;;;;;;;;;5022200;28;20503;-51
2021/11/05 03:00:01;;;;;;;73.10;31.77;;;;;;;;;;5022509;28;20445;-51
2021/11/05 03:02:27;;;;;;;72.30;29.37;;;;;;;;;;5021361;28;20884;-50
2021/11/05 03:04:54;;;;;;;65.90;26.97;;;;;;;;;;5022010;28;20438;-50
2021/11/05 03:07:20;;;;;;;55.97;27.50;;;;;;;;;;5021944;28;20460;-52
2021/11/05 03:09:46;;;;;;;69.17;29.60;;;;;;;;;;5020910;28;20457;-51
2021/11/05 03:12:12;;;;;;;72.83;30.80;;;;;;;;;;5020246;28;20441;-51
2021/11/05 03:14:39;;;;;;;71.80;29.80;;;;;;;;;;5022089;28;20455;-51
2021/11/05 03:17:06;;;;;;;69.73;28.80;;;;;;;;;;5020827;28;20397;-49
2021/11/05 03:19:32;;;;;;;68.57;30.40;;;;;;;;;;5021036;28;20418;-50
2021/11/05 03:21:59;;;;;;;70.53;28.67;;;;;;;;;;5021017;28;20407;-50
2021/11/05 03:24:25;;;;;;;72.30;28.93;;;;;;;;;;5020401;28;20426;-52
2021/11/05 03:26:51;;;;;;;67.13;30.30;;;;;;;;;;5021060;28;20898;-51
2021/11/05 03:29:17;;;;;;;67.10;29.47;;;;;;;;;;5021550;28;20768;-50
2021/11/05 03:31:43;;;;;;;68.73;29.13;;;;;;;;;;5022589;28;20410;-51
2021/11/05 03:34:10;;;;;;;65.67;29.17;;;;;;;;;;5021708;28;20400;-51
2021/11/05 03:36:36;;;;;;;66.43;30.37;;;;;;;;;;5021481;28;20419;-51
2021/11/05 03:39:02;;;;;;;77.07;29.53;;;;;;;;;;5021476;28;20419;-51
2021/11/05 03:41:28;;;;;;;67.37;29.37;;;;;;;;;;5021812;28;20427;-51
2021/11/05 03:43:54;;;;;;;65.27;29.43;;;;;;;;;;5022979;28;20893;-51
2021/11/05 03:46:20;;;;;;;58.30;26.77;;;;;;;;;;5022505;28;20506;-50
2021/11/05 03:48:46;;;;;;;75.47;28.27;;;;;;;;;;5021242;28;20413;-51
2021/11/05 03:51:12;;;;;;;67.33;29.50;;;;;;;;;;5022100;28;20729;-51
2021/11/05 03:53:39;;;;;;;68.17;27.83;;;;;;;;;;5019886;28;20403;-51
2021/11/05 03:56:05;;;;;;;69.83;28.47;;;;;;;;;;5018218;28;20429;-51
2021/11/05 03:58:31;;;;;;;74.53;28.57;;;;;;;;;;5018234;28;20411;-51
2021/11/05 04:00:58;;;;;;;65.47;29.40;;;;;;;;;;5018746;28;20431;-51
2021/11/05 04:03:24;;;;;;;70.97;26.93;;;;;;;;;;5018665;28;20452;-51
2021/11/05 04:05:50;;;;;;;73.67;27.63;;;;;;;;;;5018639;28;20433;-51
2021/11/05 04:08:16;;;;;;;65.17;27.37;;;;;;;;;;5018942;28;20993;-51
2021/11/05 04:10:43;;;;;;;70.73;28.63;;;;;;;;;;5018580;28;20410;-51
2021/11/05 04:13:09;;;;;;;74.37;29.67;;;;;;;;;;5016578;28;20408;-51
2021/11/05 04:15:35;;;;;;;99.07;31.30;;;;;;;;;;5017109;28;20968;-50
2021/11/05 04:18:01;;;;;;;88.80;31.43;;;;;;;;;;5016464;28;20417;-52
2021/11/05 04:20:27;;;;;;;80.47;29.93;;;;;;;;;;5018156;28;20702;-51
2021/11/05 04:22:53;;;;;;;76.70;27.83;;;;;;;;;;5016958;28;20928;-52
2021/11/05 04:25:19;;;;;;;76.30;29.00;;;;;;;;;;5017124;28;20434;-51
2021/11/05 04:27:45;;;;;;;78.20;31.17;;;;;;;;;;5016748;28;20465;-51
2021/11/05 04:30:13;;;;;;;72.13;29.00;;;;;;;;;;5018231;28;20410;-51
2021/11/05 04:32:39;;;;;;;81.80;29.73;;;;;;;;;;5018265;28;20397;-51
2021/11/05 04:35:05;;;;;;;66.10;28.80;;;;;;;;;;5018672;28;20469;-51
2021/11/05 04:37:31;;;;;;;75.17;31.13;;;;;;;;;;5017495;28;20899;-51
2021/11/05 04:39:57;;;;;;;92.70;30.87;;;;;;;;;;5017920;28;20454;-51
2021/11/05 04:42:23;;;;;;;78.57;28.97;;;;;;;;;;5016756;28;20408;-51
2021/11/05 04:44:49;;;;;;;84.37;31.07;;;;;;;;;;5017193;28;20426;-50
2021/11/05 04:47:16;;;;;;;83.80;29.17;;;;;;;;;;5016412;28;20566;-51
2021/11/05 04:49:42;;;;;;;76.23;29.30;;;;;;;;;;5015312;28;20456;-51
2021/11/05 04:52:08;;;;;;;89.90;31.93;;;;;;;;;;5015611;28;20434;-51
2021/11/05 04:54:34;;;;;;;98.87;32.73;;;;;;;;;;5015718;28;20479;-50
2021/11/05 04:57:00;;;;;;;89.73;32.73;;;;;;;;;;5014945;28;20411;-51
2021/11/05 04:59:26;;;;;;;92.97;32.83;;;;;;;;;;5014849;28;20411;-51
2021/11/05 05:01:52;;;;;;;78.27;29.57;;;;;;;;;;5015446;28;20413;-51
2021/11/05 05:04:18;;;;;;;81.60;32.97;;;;;;;;;;5015453;28;20445;-50
2021/11/05 05:06:44;;;;;;;80.27;30.83;;;;;;;;;;5015296;28;20467;-50
2021/11/05 05:09:11;;;;;;;91.33;33.07;;;;;;;;;;5014859;28;20397;-51
2021/11/05 05:11:37;;;;;;;80.80;31.20;;;;;;;;;;5015516;28;20438;-50
2021/11/05 05:14:03;;;;;;;99.23;34.57;;;;;;;;;;5015686;28;20398;-51
2021/11/05 05:16:31;;;;;;;82.60;32.50;;;;;;;;;;5015553;28;20449;-51
2021/11/05 05:18:57;;;;;;;106.47;33.80;;;;;;;;;;5015380;28;20604;-52
2021/11/05 05:21:23;;;;;;;86.97;32.83;;;;;;;;;;5015500;28;20409;-51
2021/11/05 05:23:49;;;;;;;104.40;31.77;;;;;;;;;;5015895;28;20417;-51
2021/11/05 05:26:15;;;;;;;95.63;29.50;;;;;;;;;;5014282;28;20462;-51
2021/11/05 05:28:40;;;;;;;93.43;31.60;;;;;;;;;;5014899;28;20399;-51
2021/11/05 05:31:07;;;;;;;80.97;31.10;;;;;;;;;;5015154;28;20491;-49
2021/11/05 05:33:35;;;;;;;89.57;33.60;;;;;;;;;;5013003;28;20428;-50
2021/11/05 05:36:02;;;;;;;101.97;30.63;;;;;;;;;;5012953;28;20525;-48
2021/11/05 05:38:28;;;;;;;90.67;33.00;;;;;;;;;;5012774;28;20423;-48
2021/11/05 05:40:54;;;;;;;97.87;33.10;;;;;;;;;;5012812;28;20410;-48
2021/11/05 05:43:20;;;;;;;89.83;32.03;;;;;;;;;;5011557;28;20414;-49
2021/11/05 05:45:46;;;;;;;88.37;30.77;;;;;;;;;;5012643;28;20427;-48
2021/11/05 05:48:12;;;;;;;86.77;30.17;;;;;;;;;;5011250;28;20421;-48
2021/11/05 05:50:38;;;;;;;90.47;29.67;;;;;;;;;;5012682;28;20400;-48
2021/11/05 05:53:04;;;;;;;91.93;30.50;;;;;;;;;;5012630;28;20403;-49
2021/11/05 05:55:30;;;;;;;89.27;30.87;;;;;;;;;;5012856;28;20448;-49
2021/11/05 05:57:56;;;;;;;87.90;30.20;;;;;;;;;;5012292;28;20517;-50
2021/11/05 06:00:22;;;;;;;82.23;32.03;;;;;;;;;;5012510;28;20921;-51
2021/11/05 06:02:48;;;;;;;85.20;28.37;;;;;;;;;;5012364;28;20406;-49
2021/11/05 06:05:15;;;;;;;74.30;28.33;;;;;;;;;;5012217;28;20430;-48
2021/11/05 06:07:41;;;;;;;83.53;29.77;;;;;;;;;;5012241;28;20463;-48
2021/11/05 06:10:07;;;;;;;70.03;28.60;;;;;;;;;;5012298;28;20862;-49
2021/11/05 06:12:33;;;;;;;74.33;27.50;;;;;;;;;;5012394;28;20949;-48
2021/11/05 06:14:59;;;;;;;69.93;29.10;;;;;;;;;;5012053;28;20441;-48
2021/11/05 06:17:25;;;;;;;76.63;29.30;;;;;;;;;;5011212;28;20443;-49
2021/11/05 06:19:51;;;;;;;69.83;28.17;;;;;;;;;;5012135;28;20513;-48
2021/11/05 06:22:19;;;;;;;75.37;26.77;;;;;;;;;;5012079;28;20415;-50
2021/11/05 06:24:45;;;;;;;80.20;28.93;;;;;;;;;;5012096;28;20431;-49
2021/11/05 06:27:11;;;;;;;75.37;28.00;;;;;;;;;;5012020;28;20541;-48
2021/11/05 06:29:37;;;;;;;72.97;27.10;;;;;;;;;;5012358;28;20475;-48
2021/11/05 06:32:03;;;;;;;62.03;25.13;;;;;;;;;;5012107;28;20413;-48
2021/11/05 06:34:29;;;;;;;69.63;26.70;;;;;;;;;;5011741;28;20410;-49
2021/11/05 06:36:55;;;;;;;69.23;27.50;;;;;;;;;;5011321;28;20414;-49
2021/11/05 06:39:21;;;;;;;53.53;23.60;;;;;;;;;;5009655;28;20417;-48
2021/11/05 06:41:48;;;;;;;65.67;25.43;;;;;;;;;;5010021;28;20408;-48
2021/11/05 06:44:14;;;;;;;71.80;25.30;;;;;;;;;;5010499;28;20980;-50
2021/11/05 06:46:40;;;;;;;64.03;25.27;;;;;;;;;;5011003;28;20465;-48
2021/11/05 06:49:06;;;;;;;57.93;25.43;;;;;;;;;;5010872;28;20437;-49
2021/11/05 06:51:32;;;;;;;69.80;24.27;;;;;;;;;;5011231;28;20897;-49
2021/11/05 06:53:58;;;;;;;73.97;27.93;;;;;;;;;;5010992;28;20409;-49
2021/11/05 06:56:24;;;;;;;64.87;28.43;;;;;;;;;;5011555;28;20444;-48
2021/11/05 06:58:50;;;;;;;65.70;26.03;;;;;;;;;;5011403;28;20783;-48
2021/11/05 07:01:16;;;;;;;56.90;25.17;;;;;;;;;;5011828;28;20461;-48
2021/11/05 07:03:42;;;;;;;62.23;25.40;;;;;;;;;;5011686;28;20414;-49
2021/11/05 07:06:09;;;;;;;55.57;24.90;;;;;;;;;;5011687;28;20761;-48
2021/11/05 07:08:35;;;;;;;70.00;25.03;;;;;;;;;;5011559;28;20431;-49
2021/11/05 07:11:01;;;;;;;67.37;24.97;;;;;;;;;;5011552;28;20901;-49
2021/11/05 07:13:27;;;;;;;62.50;24.27;;;;;;;;;;5011686;28;20401;-49
2021/11/05 07:15:54;;;;;;;60.70;24.30;;;;;;;;;;5011446;28;20941;-48
2021/11/05 07:18:20;;;;;;;63.07;26.00;;;;;;;;;;5011499;28;20403;-48
2021/11/05 07:20:46;;;;;;;63.47;22.57;;;;;;;;;;5011555;28;20403;-49
2021/11/05 07:23:13;;;;;;;63.13;23.80;;;;;;;;;;5011405;28;20811;-48
2021/11/05 07:25:39;;;;;;;64.47;24.63;;;;;;;;;;5011515;28;20527;-49
2021/11/05 07:28:05;;;;;;;75.37;26.93;;;;;;;;;;5011143;28;20465;-48
2021/11/05 07:30:31;;;;;;;59.07;25.03;;;;;;;;;;5014981;28;20960;-48
2021/11/05 07:32:58;;;;;;;71.40;24.40;;;;;;;;;;5015296;28;20838;-48
2021/11/05 07:35:24;;;;;;;61.27;22.80;;;;;;;;;;5014980;28;20941;-51
2021/11/05 07:37:51;;;;;;;71.97;25.00;;;;;;;;;;5014876;28;20412;-48
2021/11/05 07:40:17;;;;;;;55.70;23.53;;;;;;;;;;5015317;28;20933;-49
2021/11/05 07:42:44;;;;;;;64.77;24.90;;;;;;;;;;5015052;28;20503;-49
2021/11/05 07:45:12;;;;;;;53.00;22.40;;;;;;;;;;5014935;28;20424;-47
2021/11/05 07:47:38;;;;;;;50.93;21.70;;;;;;;;;;5014665;28;20606;-48
2021/11/05 07:50:05;;;;;;;59.60;20.60;;;;;;;;;;5014902;28;20754;-48
2021/11/05 07:52:31;;;;;;;56.47;21.40;;;;;;;;;;5014906;28;20491;-49
2021/11/05 07:54:57;;;;;;;62.57;24.07;;;;;;;;;;5014548;28;20430;-49
2021/11/05 07:57:23;;;;;;;51.70;21.80;;;;;;;;;;5014491;28;20442;-49
2021/11/05 07:59:49;;;;;;;63.97;23.90;;;;;;;;;;5014693;28;20407;-51
2021/11/05 08:02:15;;;;;;;79.77;26.17;;;;;;;;;;5014719;28;20402;-48
2021/11/05 08:04:41;;;;;;;58.93;23.60;;;;;;;;;;5014680;28;20794;-48
2021/11/05 08:07:07;;;;;;;67.80;24.87;;;;;;;;;;5019025;28;20455;-48
2021/11/05 08:09:33;;;;;;;63.53;25.00;;;;;;;;;;5026713;28;20409;-49
2021/11/05 08:11:59;;;;;;;54.30;22.13;;;;;;;;;;5032857;28;20411;-48
2021/11/05 08:14:25;;;;;;;62.03;22.37;;;;;;;;;;5033871;28;20405;-48
2021/11/05 08:16:51;;;;;;;63.70;23.47;;;;;;;;;;5022504;28;20414;-49
2021/11/05 08:19:17;;;;;;;60.40;23.80;;;;;;;;;;5011055;28;20911;-49
2021/11/05 08:21:43;;;;;;;67.77;23.87;;;;;;;;;;5019122;28;20411;-49
2021/11/05 08:24:09;;;;;;;59.63;24.03;;;;;;;;;;5003513;28;20406;-49
2021/11/05 08:26:35;;;;;;;68.23;22.77;;;;;;;;;;5004177;28;20469;-50
2021/11/05 08:29:05;;;;;;;54.13;20.60;;;;;;;;;;5002413;28;20427;-50
2021/11/05 08:31:31;;;;;;;70.60;23.93;;;;;;;;;;5004187;28;20418;-48
2021/11/05 08:33:57;;;;;;;74.70;24.30;;;;;;;;;;4994462;28;20411;-48
2021/11/05 08:36:24;;;;;;;63.33;23.50;;;;;;;;;;4996886;28;20438;-48
2021/11/05 08:38:51;;;;;;;68.23;24.67;;;;;;;;;;5004440;28;20485;-49
2021/11/05 08:41:17;;;;;;;68.80;25.53;;;;;;;;;;5001496;28;20421;-48
2021/11/05 08:43:44;;;;;;;55.80;22.83;;;;;;;;;;5003649;28;20839;-48
2021/11/05 08:46:10;;;;;;;56.83;23.40;;;;;;;;;;5030371;28;20450;-48
2021/11/05 08:48:36;;;;;;;61.07;23.50;;;;;;;;;;5033366;28;20408;-48
2021/11/05 08:51:07;;;;;;;58.67;24.10;;;;;;;;;;5033679;28;20398;-48
2021/11/05 08:53:33;;;;;;;54.97;23.07;;;;;;;;;;5033061;28;20430;-48
2021/11/05 08:55:59;;;;;;;51.30;21.10;;;;;;;;;;5033458;28;20534;-48
2021/11/05 08:58:25;;;;;;;48.97;22.43;;;;;;;;;;5033038;28;20413;-51
2021/11/05 09:00:51;;;;;;;58.00;22.23;;;;;;;;;;5011722;28;20408;-49
2021/11/05 09:03:17;;;;;;;44.47;18.77;;;;;;;;;;4998524;28;20506;-48
2021/11/05 09:05:43;;;;;;;57.20;23.20;;;;;;;;;;4994210;28;20478;-48
2021/11/05 09:08:09;;;;;;;54.23;21.70;;;;;;;;;;5030226;28;20461;-48
2021/11/05 09:10:35;;;;;;;45.63;21.63;;;;;;;;;;5030771;28;20414;-48
2021/11/05 09:13:04;;;;;;;55.13;21.60;;;;;;;;;;5032774;28;20412;-48
2021/11/05 09:15:30;;;;;;;42.07;19.47;;;;;;;;;;5031680;28;20454;-48
2021/11/05 09:17:57;;;;;;;49.13;20.07;;;;;;;;;;5032779;28;20402;-48
2021/11/05 09:20:23;;;;;;;46.70;21.50;;;;;;;;;;5033018;28;20933;-51
2021/11/05 09:22:50;;;;;;;55.17;23.90;;;;;;;;;;5032761;28;20417;-51
2021/11/05 09:25:16;;;;;;;46.27;20.00;;;;;;;;;;5032864;28;20430;-49
2021/11/05 09:27:44;;;;;;;44.97;20.23;;;;;;;;;;5030271;28;20465;-48
2021/11/05 09:30:11;;;;;;;51.57;20.57;;;;;;;;;;5001675;28;20415;-49
2021/11/05 09:32:37;;;;;;;39.63;20.80;;;;;;;;;;5013044;28;20396;-48
2021/11/05 09:35:03;;;;;;;47.93;19.37;;;;;;;;;;5012491;28;20425;-48
2021/11/05 09:37:29;;;;;;;46.73;19.83;;;;;;;;;;5012486;28;20404;-49
2021/11/05 09:39:55;;;;;;;42.10;18.50;;;;;;;;;;5012682;28;20417;-48
2021/11/05 09:42:21;;;;;;;43.50;19.70;;;;;;;;;;5012312;28;20411;-49
2021/11/05 09:44:47;;;;;;;41.37;19.17;;;;;;;;;;5012760;28;20791;-48
2021/11/05 09:47:14;;;;;;;49.50;18.03;;;;;;;;;;5011987;28;20482;-48
2021/11/05 09:49:41;;;;;;;44.47;20.80;;;;;;;;;;5011810;28;21074;-48
2021/11/05 09:52:07;;;;;;;40.83;19.17;;;;;;;;;;5010918;28;20760;-50
2021/11/05 09:54:34;;;;;;;44.47;20.07;;;;;;;;;;5012456;28;20432;-50
2021/11/05 09:57:02;;;;;;;42.57;19.80;;;;;;;;;;5011149;28;20410;-49
2021/11/05 09:59:28;;;;;;;38.67;18.50;;;;;;;;;;5011182;28;20407;-49
2021/11/05 10:01:54;;;;;;;43.83;21.17;;;;;;;;;;5008969;28;20419;-49
2021/11/05 10:04:20;;;;;;;32.43;17.63;;;;;;;;;;5010375;28;20407;-50
2021/11/05 10:07:05;;;;;;;40.00;19.00;;;;;;;;;;5010770;28;20561;-48
2021/11/05 10:09:38;;;;;;;41.60;19.40;;;;;;;;;;5009782;28;20462;-48
2021/11/05 10:12:24;;;;;;;44.17;20.30;;;;;;;;;;5010991;28;20487;-49
2021/11/05 10:14:54;;;;;;;42.17;19.40;;;;;;;;;;5009749;28;20451;-48
2021/11/05 10:17:21;;;;;;;40.40;19.50;;;;;;;;;;5012213;28;20410;-53
2021/11/05 10:19:52;;;;;;;36.87;18.00;;;;;;;;;;5012279;28;20774;-48
2021/11/05 10:22:36;;;;;;;37.07;19.33;;;;;;;;;;5011164;28;20930;-48
2021/11/05 10:25:21;;;;;;;43.90;20.00;;;;;;;;;;5012051;28;20415;-48
2021/11/05 10:27:48;;;;;;;38.80;18.97;;;;;;;;;;5011777;28;20462;-49
2021/11/05 10:30:14;;;;;;;34.03;17.77;;;;;;;;;;5012077;28;20403;-49
2021/11/05 10:32:53;;;;;;;34.30;18.17;;;;;;;;;;5012010;28;20404;-48
2021/11/05 10:35:21;;;;;;;40.57;18.70;;;;;;;;;;5011994;28;20457;-48
2021/11/05 10:37:47;;;;;;;43.70;17.30;;;;;;;;;;5011586;28;20403;-49
2021/11/05 10:40:15;;;;;;;40.10;17.00;;;;;;;;;;5011905;28;20400;-48
2021/11/05 10:42:45;;;;;;;40.93;20.00;;;;;;;;;;5012091;28;20395;-49
2021/11/05 10:45:22;;;;;;;37.87;18.73;;;;;;;;;;5012256;28;20514;-49
2021/11/05 10:47:54;;;;;;;39.07;18.80;;;;;;;;;;5011669;28;20458;-48
2021/11/05 10:50:23;;;;;;;34.87;17.40;;;;;;;;;;5011959;28;20426;-48
2021/11/05 10:53:02;;;;;;;37.77;18.60;;;;;;;;;;5011911;28;20472;-48
2021/11/05 10:55:48;;;;;;;38.33;17.60;;;;;;;;;;5011728;28;20431;-49
2021/11/05 10:58:17;;;;;;;31.50;16.10;;;;;;;;;;5007328;28;20419;-49
2021/11/05 11:00:43;;;;;;;31.20;16.67;;;;;;;;;;5015523;28;20929;-49
2021/11/05 11:03:30;;;;;;;33.77;16.60;;;;;;;;;;5012063;28;20408;-48
2021/11/05 11:05:58;;;;;;;29.43;15.33;;;;;;;;;;5015462;28;20953;-48
2021/11/05 11:08:26;;;;;;;30.70;17.20;;;;;;;;;;5015174;28;20407;-49
2021/11/05 11:10:53;;;;;;;43.53;18.33;;;;;;;;;;5015106;28;20403;-51
2021/11/05 11:13:30;;;;;;;42.80;20.13;;;;;;;;;;5015556;28;20402;-48
2021/11/05 11:15:56;;;;;;;32.97;17.17;;;;;;;;;;5015412;28;20517;-48
2021/11/05 11:18:22;;;;;;;30.30;17.03;;;;;;;;;;5015362;28;20407;-48
2021/11/05 11:20:48;;;;;;;32.43;17.53;;;;;;;;;;5015501;28;20798;-49
2021/11/05 11:23:14;;;;;;;25.70;14.23;;;;;;;;;;5015411;28;20490;-49
2021/11/05 11:25:41;;;;;;;24.97;15.67;;;;;;;;;;5015165;28;20449;-49
2021/11/05 11:28:07;;;;;;;26.87;14.53;;;;;;;;;;5014966;28;20461;-51
2021/11/05 11:30:33;;;;;;;27.00;15.70;;;;;;;;;;5015343;28;20495;-50
2021/11/05 11:33:00;;;;;;;29.50;15.90;;;;;;;;;;5014798;28;20409;-52
2021/11/05 11:35:26;;;;;;;23.73;14.17;;;;;;;;;;5015967;28;20427;-50
2021/11/05 11:37:52;;;;;;;26.60;16.00;;;;;;;;;;5015126;28;20413;-52
2021/11/05 11:40:18;;;;;;;29.83;16.80;;;;;;;;;;5015164;28;20496;-50
2021/11/05 11:42:44;;;;;;;24.20;16.03;;;;;;;;;;5015025;28;20846;-51
2021/11/05 11:45:11;;;;;;;38.87;16.43;;;;;;;;;;5015056;28;20514;-51
2021/11/05 11:47:44;;;;;;;26.00;14.13;;;;;;;;;;5014678;28;20464;-51
2021/11/05 11:50:25;;;;;;;29.03;16.67;;;;;;;;;;5014944;28;20400;-51
2021/11/05 11:53:04;;;;;;;33.20;15.90;;;;;;;;;;5014899;28;20928;-51
2021/11/05 11:55:31;;;;;;;23.23;14.33;;;;;;;;;;5014973;28;20428;-51
2021/11/05 11:58:16;;;;;;;23.17;15.87;;;;;;;;;;5014784;28;20904;-52
2021/11/05 12:00:44;;;;;;;24.97;16.70;;;;;;;;;;5014549;28;20408;-51
2021/11/05 12:03:11;;;;;;;23.70;15.63;;;;;;;;;;5013232;28;20826;-51
2021/11/05 12:05:37;;;;;;;23.33;14.80;;;;;;;;;;5012747;28;20769;-52
2021/11/05 12:08:21;;;;;;;25.17;15.10;;;;;;;;;;5012254;28;20435;-51
2021/11/05 12:10:49;;;;;;;25.93;15.70;;;;;;;;;;5014054;28;20963;-52
2021/11/05 12:13:33;;;;;;;21.83;14.93;;;;;;;;;;5013480;28;20431;-51
2021/11/05 12:16:13;;;;;;;24.00;14.77;;;;;;;;;;5013195;28;20547;-52
2021/11/05 12:18:58;;;;;;;27.77;14.67;;;;;;;;;;5014259;28;20430;-51
2021/11/05 12:21:24;;;;;;;22.07;14.60;;;;;;;;;;5013975;28;20392;-52
2021/11/05 12:24:09;;;;;;;19.47;14.10;;;;;;;;;;5014523;28;20448;-51
2021/11/05 12:26:46;;;;;;;25.27;15.30;;;;;;;;;;5014121;28;20460;-52
2021/11/05 12:29:32;;;;;;;25.70;14.80;;;;;;;;;;5008887;28;20421;-52
2021/11/05 12:32:19;;;;;;;23.60;15.37;;;;;;;;;;4994725;28;20422;-51
2021/11/05 12:34:48;;;;;;;21.67;15.80;;;;;;;;;;4993360;28;20580;-53
2021/11/05 12:37:28;;;;;;;23.33;15.77;;;;;;;;;;4994430;28;20921;-51
2021/11/05 12:39:55;;;;;;;24.70;16.70;;;;;;;;;;4992956;28;20774;-52
2021/11/05 12:42:21;;;;;;;21.13;16.00;;;;;;;;;;4994096;28;20885;-51
2021/11/05 12:45:01;;;;;;;23.63;16.43;;;;;;;;;;4994456;28;20429;-51
2021/11/05 12:47:48;;;;;;;24.80;16.40;;;;;;;;;;4994304;28;20580;-51
2021/11/05 12:50:23;;;;;;;28.30;16.03;;;;;;;;;;4994435;28;20425;-51
2021/11/05 12:52:52;;;;;;;26.33;15.03;;;;;;;;;;4993344;28;20535;-51
2021/11/05 12:55:19;;;;;;;26.83;16.00;;;;;;;;;;4994290;28;20425;-52
2021/11/05 12:57:49;;;;;;;18.73;14.00;;;;;;;;;;4993945;28;20913;-51
2021/11/05 13:00:16;;;;;;;21.30;13.80;;;;;;;;;;4997884;28;20424;-51
2021/11/05 13:02:41;;;;;;;18.67;13.57;;;;;;;;;;5013690;28;20498;-51
2021/11/05 13:05:11;;;;;;;22.13;14.03;;;;;;;;;;5014029;28;20874;-50
2021/11/05 13:07:37;;;;;;;23.33;15.93;;;;;;;;;;5014338;28;20455;-51
2021/11/05 13:10:03;;;;;;;21.93;14.17;;;;;;;;;;5014494;28;20400;-52
2021/11/05 13:12:29;;;;;;;19.57;14.87;;;;;;;;;;5013191;28;20431;-51
2021/11/05 13:14:57;;;;;;;16.70;14.03;;;;;;;;;;5014253;28;20939;-51
2021/11/05 13:17:31;;;;;;;17.20;13.33;;;;;;;;;;5014259;28;20414;-51
2021/11/05 13:19:57;;;;;;;19.20;13.43;;;;;;;;;;5015235;28;20412;-53
2021/11/05 13:22:25;;;;;;;19.63;13.63;;;;;;;;;;5014669;28;20414;-51
2021/11/05 13:24:51;;;;;;;19.43;13.67;;;;;;;;;;5014442;28;20414;-50
2021/11/05 13:27:17;;;;;;;20.53;12.80;;;;;;;;;;5014051;28;20457;-52
2021/11/05 13:29:47;;;;;;;17.90;13.27;;;;;;;;;;5014759;28;20398;-52
2021/11/05 13:32:15;;;;;;;14.43;11.90;;;;;;;;;;5014871;28;20379;-52
2021/11/05 13:34:41;;;;;;;19.13;12.30;;;;;;;;;;5014269;28;20746;-52
2021/11/05 13:37:07;;;;;;;14.77;12.90;;;;;;;;;;5014123;28;20392;-52
2021/11/05 13:39:33;;;;;;;17.50;12.27;;;;;;;;;;5015266;28;20773;-51
2021/11/05 13:41:59;;;;;;;17.00;11.77;;;;;;;;;;5014435;28;20407;-51
2021/11/05 13:44:25;;;;;;;12.83;9.83;;;;;;;;;;5013815;28;20377;-52
2021/11/05 13:46:51;;;;;;;13.50;9.60;;;;;;;;;;5013337;28;20780;-52
2021/11/05 13:49:17;;;;;;;19.80;10.07;;;;;;;;;;5013120;28;20410;-52
2021/11/05 13:51:43;;;;;;;13.10;10.00;;;;;;;;;;5014401;28;20418;-52
2021/11/05 13:54:14;;;;;;;13.23;11.43;;;;;;;;;;5014575;28;20893;-52
2021/11/05 13:56:40;;;;;;;11.30;10.00;;;;;;;;;;5015414;28;20382;-52
2021/11/05 13:59:17;;;;;;;15.13;10.97;;;;;;;;;;5014633;28;20399;-51
2021/11/05 14:01:44;;;;;;;17.80;10.63;;;;;;;;;;5014783;28;20660;-51
2021/11/05 14:04:13;;;;;;;16.33;10.70;;;;;;;;;;5012723;28;20418;-52
2021/11/05 14:06:44;;;;;;;13.07;10.07;;;;;;;;;;5009749;28;20461;-53
2021/11/05 14:09:13;;;;;;;14.97;11.23;;;;;;;;;;5013707;28;20426;-50
2021/11/05 14:11:49;;;;;;;11.40;9.83;;;;;;;;;;5009903;28;20445;-50
2021/11/05 14:14:28;;;;;;;10.13;8.60;;;;;;;;;;5014494;28;20751;-51
2021/11/05 14:16:56;;;;;;;12.17;9.77;;;;;;;;;;5014415;28;20870;-49
2021/11/05 14:19:23;;;;;;;14.90;9.10;;;;;;;;;;4995565;28;20427;-48